createdAt,value
2019-04-10T00:02:07.789Z,16.12
2019-04-10T00:04:37.395Z,16.75
2019-04-10T00:07:14.249Z,16.35
2019-04-10T00:09:39.226Z,17.05
2019-04-10T00:12:09.570Z,16.73
2019-04-10T00:14:39.106Z,15.70
2019-04-10T00:17:08.989Z,15.48
2019-04-10T00:19:38.562Z,15.95
2019-04-10T00:22:08.057Z,16.42
2019-04-10T00:24:37.857Z,15.90
2019-04-10T00:27:07.420Z,15.53
2019-04-10T00:29:36.939Z,14.73
2019-04-10T00:32:06.435Z,15.35
2019-04-10T00:34:36.005Z,16.93
2019-04-10T00:37:05.874Z,15.95
2019-04-10T00:39:35.357Z,15.35
2019-04-10T00:42:05.098Z,16.02
2019-04-10T00:44:35.445Z,14.80
2019-04-10T00:47:06.530Z,16.70
2019-04-10T00:49:36.074Z,15.95
2019-04-10T00:52:05.992Z,16.10
2019-04-10T00:54:35.621Z,15.45
2019-04-10T00:57:05.290Z,16.12
2019-04-10T00:59:34.796Z,14.65
2019-04-10T01:02:04.642Z,15.65
2019-04-10T01:04:34.196Z,14.68
2019-04-10T01:07:04.327Z,15.58
2019-04-10T01:09:33.843Z,16.67
2019-04-10T01:12:03.621Z,16.60
2019-04-10T01:14:33.942Z,15.55
2019-04-10T01:17:04.083Z,15.30
2019-04-10T01:19:34.351Z,16.45
2019-04-10T01:22:03.893Z,16.12
2019-04-10T01:24:33.513Z,14.78
2019-04-10T01:27:03.416Z,12.82
2019-04-10T01:29:33.608Z,15.55
2019-04-10T01:32:03.657Z,15.45
2019-04-10T01:34:33.689Z,15.18
2019-04-10T01:37:03.286Z,13.28
2019-04-10T01:39:34.665Z,14.75
2019-04-10T01:42:04.217Z,14.78
2019-04-10T01:44:33.710Z,15.48
2019-04-10T01:47:03.207Z,13.93
2019-04-10T01:49:33.587Z,14.85
2019-04-10T01:52:03.083Z,15.65
2019-04-10T01:54:33.274Z,14.45
2019-04-10T01:57:02.839Z,14.95
2019-04-10T01:59:34.093Z,13.88
2019-04-10T02:02:05.299Z,14.23
2019-04-10T02:04:35.175Z,14.95
2019-04-10T02:07:05.582Z,14.55
2019-04-10T02:09:35.138Z,14.95
2019-04-10T02:12:04.642Z,12.88
2019-04-10T02:14:34.310Z,13.53
2019-04-10T02:17:04.277Z,13.88
2019-04-10T02:19:34.374Z,15.18
2019-04-10T02:22:04.383Z,14.33
2019-04-10T02:24:33.931Z,13.85
2019-04-10T02:27:03.432Z,14.25
2019-04-10T02:29:33.567Z,13.83
2019-04-10T02:32:04.116Z,15.45
2019-04-10T02:34:33.770Z,14.10
2019-04-10T02:37:03.289Z,15.45
2019-04-10T02:39:39.715Z,14.40
2019-04-10T02:42:04.156Z,14.40
2019-04-10T02:44:35.385Z,12.35
2019-04-10T02:47:06.318Z,13.85
2019-04-10T02:49:36.445Z,13.50
2019-04-10T02:52:06.641Z,13.35
2019-04-10T02:54:37.534Z,13.58
2019-04-10T02:57:07.508Z,14.30
2019-04-10T02:59:37.578Z,14.70
2019-04-10T03:02:08.606Z,14.40
2019-04-10T03:04:38.345Z,14.35
2019-04-10T03:07:09.489Z,13.28
2019-04-10T03:09:53.651Z,13.28
2019-04-10T03:12:12.221Z,13.08
2019-04-10T03:14:45.239Z,13.18
2019-04-10T03:17:12.861Z,12.63
2019-04-10T03:19:43.455Z,13.85
2019-04-10T03:22:13.010Z,14.40
2019-04-10T03:24:42.495Z,12.40
2019-04-10T03:27:12.330Z,14.20
2019-04-10T03:29:42.260Z,12.85
2019-04-10T03:32:34.822Z,14.50
2019-04-10T03:35:06.160Z,14.03
2019-04-10T03:37:36.159Z,14.80
2019-04-10T03:40:07.086Z,13.15
2019-04-10T03:42:37.102Z,14.05
2019-04-10T03:45:07.605Z,13.83
2019-04-10T03:47:37.669Z,13.35
2019-04-10T03:50:08.657Z,13.80
2019-04-10T03:52:38.318Z,12.05
2019-04-10T03:55:08.506Z,12.13
2019-04-10T03:57:38.555Z,12.78
2019-04-10T04:00:08.348Z,13.00
2019-04-10T04:02:38.142Z,13.05
2019-04-10T04:05:08.589Z,11.60
2019-04-10T04:07:38.880Z,14.63
2019-04-10T04:10:09.435Z,13.70
2019-04-10T04:12:39.233Z,11.57
2019-04-10T04:15:09.520Z,11.60
2019-04-10T04:17:40.066Z,13.93
2019-04-10T04:20:10.779Z,13.18
2019-04-10T04:22:41.120Z,12.47
2019-04-10T04:25:10.944Z,12.23
2019-04-10T04:27:40.440Z,12.65
2019-04-10T04:30:10.559Z,13.30
2019-04-10T04:32:40.130Z,14.00
2019-04-10T04:35:09.723Z,12.40
2019-04-10T04:37:39.229Z,12.10
2019-04-10T04:40:11.107Z,13.18
2019-04-10T04:42:40.762Z,11.35
2019-04-10T04:45:10.875Z,11.35
2019-04-10T04:47:41.255Z,13.18
2019-04-10T04:50:11.899Z,12.20
2019-04-10T04:52:41.489Z,13.05
2019-04-10T04:55:12.106Z,12.55
2019-04-10T04:57:42.296Z,12.10
2019-04-10T05:00:13.096Z,13.30
2019-04-10T05:02:42.748Z,12.07
2019-04-10T05:05:12.382Z,12.50
2019-04-10T05:07:41.884Z,10.60
2019-04-10T05:10:11.912Z,10.55
2019-04-10T05:12:43.182Z,10.93
2019-04-10T05:15:13.000Z,12.15
2019-04-10T05:17:42.438Z,12.03
2019-04-10T05:20:12.476Z,13.28
2019-04-10T05:22:41.974Z,11.48
2019-04-10T05:25:11.797Z,12.63
2019-04-10T05:27:41.407Z,11.57
2019-04-10T05:30:11.225Z,10.93
2019-04-10T05:32:41.787Z,11.60
2019-04-10T05:35:11.628Z,12.98
2019-04-10T05:37:41.211Z,12.07
2019-04-10T05:40:11.834Z,11.97
2019-04-10T05:42:41.644Z,11.28
2019-04-10T05:45:11.251Z,12.43
2019-04-10T05:47:40.763Z,12.85
2019-04-10T05:50:10.864Z,10.80
2019-04-10T05:52:40.341Z,12.93
2019-04-10T05:55:09.990Z,12.45
2019-04-10T05:57:40.565Z,11.63
2019-04-10T06:00:10.725Z,11.00
2019-04-10T06:02:40.317Z,11.55
2019-04-10T06:05:09.936Z,12.23
2019-04-10T06:07:39.431Z,11.43
2019-04-10T06:10:10.775Z,10.18
2019-04-10T06:12:40.446Z,10.95
2019-04-10T06:15:10.734Z,11.97
2019-04-10T06:17:40.695Z,12.20
2019-04-10T06:20:11.717Z,12.82
2019-04-10T06:22:41.307Z,10.53
2019-04-10T06:25:13.393Z,11.33
2019-04-10T06:27:43.032Z,11.35
2019-04-10T06:30:12.750Z,10.10
2019-04-10T06:32:43.255Z,10.32
2019-04-10T06:35:13.567Z,10.25
2019-04-10T06:37:43.126Z,10.75
2019-04-10T06:40:18.789Z,9.00
2019-04-10T06:42:49.804Z,9.50
2019-04-10T06:45:15.604Z,10.43
2019-04-10T06:47:45.180Z,10.77
2019-04-10T06:50:15.009Z,9.23
2019-04-10T06:52:45.055Z,8.90
2019-04-10T06:55:15.364Z,9.40
2019-04-10T06:57:50.844Z,9.40
2019-04-10T07:00:19.265Z,8.40
2019-04-10T07:02:49.195Z,9.93
2019-04-10T07:05:19.788Z,9.07
2019-04-10T07:07:53.594Z,9.23
2019-04-10T07:10:29.364Z,9.33
2019-04-10T07:12:51.912Z,9.83
2019-04-10T07:15:23.894Z,10.40
2019-04-10T07:17:53.438Z,9.20
2019-04-10T07:20:24.005Z,10.50
2019-04-10T07:22:53.596Z,8.53
2019-04-10T07:25:23.728Z,9.00
2019-04-10T07:27:54.364Z,10.50
2019-04-10T07:30:26.577Z,11.60
2019-04-10T07:32:55.331Z,10.90
2019-04-10T07:35:25.741Z,12.13
2019-04-10T07:37:56.947Z,10.40
2019-04-10T07:40:26.604Z,10.40
2019-04-10T07:42:56.727Z,11.80
2019-04-10T07:45:27.184Z,10.90
2019-04-10T07:47:56.980Z,9.73
2019-04-10T07:50:26.498Z,10.20
2019-04-10T07:52:56.018Z,10.20
2019-04-10T07:55:25.606Z,10.70
2019-04-10T07:57:55.275Z,10.80
2019-04-10T08:00:25.323Z,10.10
2019-04-10T08:02:57.480Z,9.67
2019-04-10T08:05:27.252Z,10.53
2019-04-10T08:07:57.543Z,10.80
2019-04-10T08:10:28.460Z,10.67
2019-04-10T08:12:58.210Z,11.17
2019-04-10T08:15:27.892Z,10.53
2019-04-10T08:17:58.307Z,10.73
2019-04-10T08:20:28.505Z,11.03
2019-04-10T08:22:58.022Z,10.20
2019-04-10T08:25:27.614Z,10.80
2019-04-10T08:27:57.089Z,9.80
2019-04-10T08:30:26.669Z,9.87
2019-04-10T08:33:00.786Z,9.53
2019-04-10T08:35:27.375Z,9.60
2019-04-10T08:37:57.049Z,9.47
2019-04-10T08:40:26.547Z,10.60
2019-04-10T08:42:56.064Z,10.40
2019-04-10T08:45:36.713Z,9.50
2019-04-10T08:47:57.293Z,11.80
2019-04-10T08:50:28.011Z,10.97
2019-04-10T08:52:57.920Z,10.80
2019-04-10T08:55:28.238Z,10.40
2019-04-10T08:57:58.603Z,11.00
2019-04-10T09:00:28.931Z,10.07
2019-04-10T09:02:58.543Z,10.97
2019-04-10T09:05:28.060Z,10.90
2019-04-10T09:07:57.616Z,10.27
2019-04-10T09:10:28.128Z,9.97
2019-04-10T09:12:57.904Z,9.30
2019-04-10T09:15:27.737Z,10.40
2019-04-10T09:17:57.707Z,10.23
2019-04-10T09:20:27.206Z,9.90
2019-04-10T09:23:17.765Z,11.20
2019-04-10T09:25:27.978Z,11.73
2019-04-10T09:27:57.987Z,10.03
2019-04-10T09:30:27.476Z,11.17
2019-04-10T09:32:57.110Z,11.97
2019-04-10T09:35:26.725Z,10.90
2019-04-10T09:37:56.650Z,11.60
2019-04-10T09:40:26.202Z,12.23
2019-04-10T09:42:55.690Z,10.80
2019-04-10T09:45:26.622Z,21.90
2019-04-10T09:47:56.196Z,23.90
2019-04-10T09:50:26.235Z,21.37
2019-04-10T09:52:56.589Z,32.87
2019-04-10T09:55:26.230Z,13.10
2019-04-10T09:57:57.228Z,12.93
2019-04-10T10:00:27.824Z,10.33
2019-04-10T10:02:57.545Z,10.67
2019-04-10T10:05:27.047Z,11.03
2019-04-10T10:07:56.543Z,9.87
2019-04-10T10:10:26.088Z,10.17
2019-04-10T10:12:55.631Z,9.17
2019-04-10T10:15:25.306Z,10.37
2019-04-10T10:17:55.056Z,9.13
2019-04-10T10:20:25.844Z,8.33
2019-04-10T10:22:55.746Z,9.40
2019-04-10T10:25:25.226Z,9.17
2019-04-10T10:27:54.822Z,8.83
2019-04-10T10:30:25.134Z,9.23
2019-04-10T10:32:54.691Z,9.13
2019-04-10T10:35:25.190Z,9.23
2019-04-10T10:37:54.886Z,8.97
2019-04-10T10:40:25.534Z,9.63
2019-04-10T10:42:56.074Z,9.03
2019-04-10T10:45:26.914Z,8.90
2019-04-10T10:47:56.773Z,9.07
2019-04-10T10:50:26.356Z,8.80
2019-04-10T10:52:55.826Z,10.10
2019-04-10T10:55:25.452Z,9.33
2019-04-10T10:57:55.429Z,8.67
2019-04-10T11:00:25.246Z,9.50
2019-04-10T11:02:55.968Z,9.80
2019-04-10T11:05:25.565Z,9.50
2019-04-10T11:07:55.829Z,9.53
2019-04-10T11:10:27.514Z,9.20
2019-04-10T11:12:58.374Z,9.10
2019-04-10T11:15:28.036Z,7.83
2019-04-10T11:17:57.847Z,8.53
2019-04-10T11:20:28.083Z,8.70
2019-04-10T11:22:57.892Z,8.67
2019-04-10T11:25:28.614Z,9.40
2019-04-10T11:27:58.454Z,8.70
2019-04-10T11:30:28.748Z,7.73
2019-04-10T11:32:58.373Z,7.57
2019-04-10T11:35:29.023Z,8.80
2019-04-10T11:38:00.605Z,9.00
2019-04-10T11:40:31.666Z,8.40
2019-04-10T11:43:03.885Z,7.57
2019-04-10T11:45:40.907Z,8.47
2019-04-10T11:48:04.744Z,9.63
2019-04-10T11:50:35.984Z,9.70
2019-04-10T11:53:07.083Z,8.97
2019-04-10T11:55:44.949Z,9.23
2019-04-10T11:58:11.332Z,9.87
2019-04-10T12:03:15.980Z,9.37
2019-04-10T12:05:48.331Z,9.03
2019-04-10T12:08:36.288Z,10.40
2019-04-10T12:13:20.005Z,9.83
2019-04-10T12:15:50.494Z,9.33
2019-04-10T12:18:20.051Z,9.23
2019-04-10T12:20:49.619Z,9.27
2019-04-10T12:23:19.176Z,9.57
2019-04-10T12:25:49.378Z,9.80
2019-04-10T12:28:20.057Z,9.77
2019-04-10T12:30:49.671Z,9.50
2019-04-10T12:33:19.198Z,10.43
2019-04-10T12:35:49.882Z,10.73
2019-04-10T12:38:19.540Z,9.40
2019-04-10T12:40:49.038Z,9.97
2019-04-10T12:43:18.778Z,9.67
2019-04-10T12:45:48.646Z,8.80
2019-04-10T12:48:18.777Z,10.60
2019-04-10T12:50:49.424Z,9.60
2019-04-10T12:53:19.171Z,9.97
2019-04-10T12:55:49.432Z,10.37
2019-04-10T12:58:19.585Z,9.10
2019-04-10T13:00:52.169Z,9.23
2019-04-10T13:03:22.965Z,9.57
2019-04-10T13:05:53.606Z,10.87
2019-04-10T13:08:31.159Z,10.17
2019-04-10T13:10:54.541Z,10.60
2019-04-10T13:13:24.303Z,10.60
2019-04-10T13:15:54.128Z,11.87
2019-04-10T13:18:24.663Z,10.30
2019-04-10T13:20:54.497Z,10.40
2019-04-10T13:23:24.643Z,10.40
2019-04-10T13:25:59.812Z,11.33
2019-04-10T13:28:25.597Z,11.17
2019-04-10T13:30:56.655Z,9.17
2019-04-10T13:33:26.733Z,10.10
2019-04-10T13:35:57.522Z,12.17
2019-04-10T13:38:32.678Z,10.00
2019-04-10T13:40:58.481Z,11.30
2019-04-10T13:43:28.005Z,9.83
2019-04-10T13:45:57.625Z,10.17
2019-04-10T13:48:27.192Z,9.70
2019-04-10T13:50:57.121Z,9.37
2019-04-10T13:53:26.662Z,9.53
2019-04-10T13:55:56.906Z,11.67
2019-04-10T13:58:27.851Z,9.20
2019-04-10T14:00:58.661Z,10.27
2019-04-10T14:03:28.392Z,10.40
2019-04-10T14:05:57.992Z,10.90
2019-04-10T14:08:40.308Z,9.67
2019-04-10T14:10:58.851Z,9.77
2019-04-10T14:13:29.557Z,9.00
2019-04-10T14:16:00.174Z,9.63
2019-04-10T14:18:29.699Z,10.37
2019-04-10T14:21:03.322Z,8.70
2019-04-10T14:23:33.207Z,9.77
2019-04-10T14:26:04.580Z,8.93
2019-04-10T14:28:35.450Z,9.83
2019-04-10T14:31:12.799Z,9.03
2019-04-10T14:33:42.320Z,9.87
2019-04-10T14:36:11.869Z,9.77
2019-04-10T14:38:41.428Z,9.83
2019-04-10T14:41:11.605Z,10.70
2019-04-10T14:43:43.005Z,11.10
2019-04-10T14:46:12.454Z,9.40
2019-04-10T14:48:42.483Z,9.07
2019-04-10T14:51:12.330Z,10.50
2019-04-10T14:53:41.779Z,9.70
2019-04-10T14:56:12.145Z,10.27
2019-04-10T14:58:42.365Z,8.97
2019-04-10T15:01:12.032Z,9.20
2019-04-10T15:03:41.591Z,9.90
2019-04-10T15:06:11.518Z,10.13
2019-04-10T15:08:41.826Z,9.30
2019-04-10T15:11:11.403Z,10.53
2019-04-10T15:13:40.959Z,9.00
2019-04-10T15:16:10.558Z,9.07
2019-04-10T15:18:40.052Z,9.30
2019-04-10T15:21:10.300Z,9.07
2019-04-10T15:23:39.804Z,10.20
2019-04-10T15:26:09.445Z,9.80
2019-04-10T15:28:39.475Z,9.13
2019-04-10T15:31:09.109Z,10.10
2019-04-10T15:33:39.397Z,9.83
2019-04-10T15:36:09.416Z,9.90
2019-04-10T15:38:38.999Z,9.30
2019-04-10T15:41:08.548Z,9.90
2019-04-10T15:43:38.128Z,11.40
2019-04-10T15:46:08.675Z,10.40
2019-04-10T15:48:38.302Z,9.77
2019-04-10T15:51:07.802Z,9.80
2019-04-10T15:53:37.389Z,9.60
2019-04-10T15:56:07.069Z,10.10
2019-04-10T15:58:36.666Z,10.50
2019-04-10T16:01:07.969Z,10.80
2019-04-10T16:03:38.634Z,10.37
2019-04-10T16:06:08.454Z,9.77
2019-04-10T16:08:39.263Z,9.83
2019-04-10T16:11:25.779Z,11.63
2019-04-10T16:13:57.030Z,14.60
2019-04-10T16:16:40.351Z,9.73
2019-04-10T16:19:11.959Z,9.87
2019-04-10T16:21:41.561Z,10.00
2019-04-10T16:24:12.301Z,9.10
2019-04-10T16:26:41.824Z,8.70
2019-04-10T16:29:11.707Z,9.07
2019-04-10T16:31:41.298Z,8.60
2019-04-10T16:34:10.882Z,9.60
2019-04-10T16:36:41.661Z,10.13
2019-04-10T16:39:13.459Z,9.10
2019-04-10T16:41:43.992Z,9.77
2019-04-10T16:44:14.860Z,9.60
2019-04-10T16:46:45.179Z,9.63
2019-04-10T16:49:14.824Z,8.20
2019-04-10T16:51:44.768Z,9.00
2019-04-10T16:54:14.291Z,9.80
2019-04-10T16:56:43.803Z,10.23
2019-04-10T16:59:14.223Z,8.20
2019-04-10T17:01:44.853Z,9.70
2019-04-10T17:04:14.732Z,7.93
2019-04-10T17:06:44.272Z,9.27
2019-04-10T17:09:16.554Z,8.10
2019-04-10T17:11:47.281Z,8.43
2019-04-10T17:14:17.481Z,9.63
2019-04-10T17:16:48.121Z,8.53
2019-04-10T17:19:17.815Z,8.70
2019-04-10T17:21:47.294Z,8.70
2019-04-10T17:24:17.417Z,11.13
2019-04-10T17:26:47.004Z,12.70
2019-04-10T17:29:16.747Z,8.67
2019-04-10T17:31:47.343Z,8.30
2019-04-10T17:34:16.880Z,7.90
2019-04-10T17:36:47.347Z,8.30
2019-04-10T17:39:19.513Z,7.23
2019-04-10T17:41:52.275Z,8.20
2019-04-10T17:44:23.402Z,7.97
2019-04-10T17:46:53.374Z,7.77
2019-04-10T17:49:23.849Z,8.23
2019-04-10T17:51:54.562Z,7.67
2019-04-10T17:54:25.082Z,8.17
2019-04-10T17:56:54.949Z,7.63
2019-04-10T17:59:24.733Z,8.50
2019-04-10T18:01:56.938Z,7.60
2019-04-10T18:04:26.916Z,7.58
2019-04-10T18:06:57.508Z,8.55
2019-04-10T18:09:27.795Z,8.45
2019-04-10T18:12:00.397Z,8.30
2019-04-10T18:14:29.136Z,8.13
2019-04-10T18:16:58.750Z,8.10
2019-04-10T18:19:28.343Z,8.15
2019-04-10T18:21:58.376Z,7.75
2019-04-10T18:24:28.481Z,6.83
2019-04-10T18:26:59.713Z,8.45
2019-04-10T18:29:30.939Z,7.42
2019-04-10T18:32:02.106Z,8.03
2019-04-10T18:34:33.251Z,7.97
2019-04-10T18:37:04.419Z,8.03
2019-04-10T18:39:34.637Z,7.87
2019-04-10T18:42:05.524Z,8.60
2019-04-10T18:44:35.279Z,8.20
2019-04-10T18:47:04.989Z,7.83
2019-04-10T18:49:34.445Z,7.10
2019-04-10T18:52:05.286Z,7.50
2019-04-10T18:54:36.000Z,7.90
2019-04-10T18:57:05.671Z,7.83
2019-04-10T18:59:39.276Z,7.65
2019-04-10T19:02:10.396Z,6.90
2019-04-10T19:04:41.558Z,8.35
2019-04-10T19:07:11.248Z,7.25
2019-04-10T19:09:41.114Z,8.08
2019-04-10T19:12:10.824Z,6.80
2019-04-10T19:14:40.672Z,8.00
2019-04-10T19:17:10.954Z,7.60
2019-04-10T19:19:42.377Z,7.35
2019-04-10T19:22:13.657Z,6.80
2019-04-10T19:24:44.102Z,15.88
2019-04-10T19:27:13.912Z,15.60
2019-04-10T19:29:43.815Z,6.28
2019-04-10T19:32:16.073Z,7.33
2019-04-10T19:34:45.808Z,7.05
2019-04-10T19:37:16.334Z,6.72
2019-04-10T19:39:46.674Z,7.95
2019-04-10T19:42:17.363Z,6.85
2019-04-10T19:44:47.629Z,7.30
2019-04-10T19:47:17.953Z,6.65
2019-04-10T19:49:48.656Z,6.83
2019-04-10T19:52:18.213Z,6.45
2019-04-10T19:54:47.826Z,6.15
2019-04-10T19:57:17.332Z,6.55
2019-04-10T19:59:47.102Z,6.25
2019-04-10T20:02:17.713Z,7.33
2019-04-10T20:04:48.430Z,6.40
2019-04-10T20:07:18.587Z,6.58
2019-04-10T20:09:48.555Z,6.50
2019-04-10T20:12:18.634Z,6.40
2019-04-10T20:14:48.501Z,6.95
2019-04-10T20:17:18.017Z,6.53
2019-04-10T20:19:48.806Z,7.40
2019-04-10T20:22:18.825Z,6.67
2019-04-10T20:24:50.157Z,6.87
2019-04-10T20:27:20.242Z,6.55
2019-04-10T20:29:51.030Z,7.37
2019-04-10T20:32:21.780Z,6.45
2019-04-10T20:34:51.784Z,6.20
2019-04-10T20:37:21.351Z,6.40
2019-04-10T20:39:51.741Z,6.40
2019-04-10T20:42:22.499Z,6.62
2019-04-10T20:44:53.362Z,7.00
2019-04-10T20:47:23.030Z,7.05
2019-04-10T20:49:53.336Z,7.45
2019-04-10T20:52:23.071Z,6.12
2019-04-10T20:54:53.124Z,6.75
2019-04-10T20:57:23.549Z,6.53
2019-04-10T20:59:53.291Z,6.92
2019-04-10T21:02:22.833Z,6.30
2019-04-10T21:04:59.550Z,6.40
2019-04-10T21:07:23.627Z,6.80
2019-04-10T21:09:54.387Z,6.85
2019-04-10T21:12:23.997Z,6.47
2019-04-10T21:14:54.638Z,5.80
2019-04-10T21:17:24.855Z,5.42
2019-04-10T21:19:54.452Z,5.97
2019-04-10T21:22:24.457Z,6.90
2019-04-10T21:24:54.181Z,6.70
2019-04-10T21:27:23.627Z,6.97
2019-04-10T21:30:01.753Z,6.58
2019-04-10T21:32:36.045Z,5.72
2019-04-10T21:35:09.523Z,6.37
2019-04-10T21:37:40.237Z,6.05
2019-04-10T21:40:10.200Z,6.33
2019-04-10T21:42:39.679Z,7.97
2019-04-10T21:45:09.636Z,5.45
2019-04-10T21:47:39.159Z,6.70
2019-04-10T21:50:10.940Z,5.80
2019-04-10T21:52:41.378Z,6.72
2019-04-10T21:55:11.130Z,7.08
2019-04-10T21:57:40.632Z,6.20
2019-04-10T22:00:12.159Z,5.80
2019-04-10T22:02:42.146Z,6.72
2019-04-10T22:05:12.688Z,5.90
2019-04-10T22:07:48.250Z,6.22
2019-04-10T22:10:32.111Z,6.30
2019-04-10T22:13:01.761Z,6.70
2019-04-10T22:15:35.896Z,5.85
2019-04-10T22:18:07.150Z,7.47
2019-04-10T22:20:36.889Z,5.50
2019-04-10T22:23:07.485Z,7.22
2019-04-10T22:25:37.415Z,5.90
2019-04-10T22:28:06.991Z,5.72
2019-04-10T22:30:37.201Z,6.03
2019-04-10T22:33:07.652Z,6.15
2019-04-10T22:35:37.265Z,5.37
2019-04-10T22:38:06.835Z,6.40
2019-04-10T22:40:36.403Z,6.60
2019-04-10T22:43:05.962Z,5.60
2019-04-10T22:45:36.039Z,5.40
2019-04-10T22:48:06.252Z,5.67
2019-04-10T22:50:36.468Z,4.92
2019-04-10T22:53:06.853Z,5.72
2019-04-10T22:55:36.397Z,5.47
2019-04-10T22:58:06.023Z,5.40
2019-04-10T23:00:35.561Z,5.47
2019-04-10T23:03:05.738Z,6.50
2019-04-10T23:05:36.498Z,5.17
2019-04-10T23:08:07.336Z,5.42
2019-04-10T23:10:37.255Z,5.92
2019-04-10T23:13:07.534Z,5.78
2019-04-10T23:15:38.001Z,5.33
2019-04-10T23:18:07.664Z,5.55
2019-04-10T23:20:37.111Z,6.55
2019-04-10T23:23:06.672Z,5.95
2019-04-10T23:25:37.392Z,5.90
2019-04-10T23:28:07.465Z,4.50
2019-04-10T23:30:37.257Z,6.08
2019-04-10T23:33:07.958Z,5.37
2019-04-10T23:35:37.948Z,6.30
2019-04-10T23:38:07.579Z,5.12
2019-04-10T23:40:37.045Z,5.30
2019-04-10T23:43:12.992Z,7.10
2019-04-10T23:45:37.909Z,6.05
2019-04-10T23:48:08.659Z,5.30
2019-04-10T23:50:38.621Z,4.92
2019-04-10T23:53:08.638Z,4.70
2019-04-10T23:55:38.185Z,5.20
2019-04-10T23:58:07.779Z,7.17
